KHY3651 RPSB-RPLC
Flight info
| Callsign | KHY3651 |
|---|---|
| Flight time | 1h 18m |
| Altitude | 16000 |
| Route | ATRIA W6A ROX TR16 SAGRA W11 MIA W16 OLIVA OLIVA5R |
| Aircraft | AT75/M-SDFGIRY/S |
Departure
| Time | 2026-04-25 03:33 |
|---|---|
| Airport | Bantayan Airport (RPSB) |
Arrival
| Time | 2026-04-25 04:51 |
|---|---|
| Airport | Clark International Airport / Clark Air Base (RPLC) |
| Time | Latitude | Longitude | Altitude | Speed | Heading |
|---|---|---|---|---|---|
| 2026-04-25 03:23 | 11.15787 | 123.78748 | 65 ft | 0 kts | 68° |
| 2026-04-25 03:31 | 11.15787 | 123.78751 | 65 ft | 0 kts | 108° |
| 2026-04-25 03:31 | 11.15775 | 123.78754 | 65 ft | 3 kts | 190° |
| 2026-04-25 03:31 | 11.15751 | 123.78732 | 65 ft | 6 kts | 242° |
| 2026-04-25 03:31 | 11.15742 | 123.78713 | 65 ft | 0 kts | 249° |
| 2026-04-25 03:32 | 11.15741 | 123.78709 | 65 ft | 2 kts | 248° |
| 2026-04-25 03:32 | 11.15730 | 123.78683 | 65 ft | 5 kts | 248° |
| 2026-04-25 03:32 | 11.15740 | 123.78670 | 65 ft | 2 kts | 352° |
| 2026-04-25 03:32 | 11.15743 | 123.78669 | 65 ft | 0 kts | 343° |
| 2026-04-25 03:33 | 11.15910 | 123.78604 | 65 ft | 63 kts | 339° |
| 2026-04-25 03:33 | 11.16515 | 123.78365 | 68 ft | 118 kts | 339° |
| 2026-04-25 03:33 | 11.17281 | 123.78048 | 488 ft | 119 kts | 339° |
| 2026-04-25 03:33 | 11.18049 | 123.77679 | 920 ft | 121 kts | 336° |
| 2026-04-25 03:34 | 11.18687 | 123.77168 | 1402 ft | 123 kts | 308° |
| 2026-04-25 03:34 | 11.19034 | 123.76333 | 1837 ft | 127 kts | 291° |
| 2026-04-25 03:34 | 11.19286 | 123.75536 | 2330 ft | 124 kts | 291° |
| 2026-04-25 03:34 | 11.19536 | 123.74525 | 2286 ft | 165 kts | 287° |
| 2026-04-25 03:35 | 11.19803 | 123.73343 | 2657 ft | 171 kts | 286° |
| 2026-04-25 03:35 | 11.20063 | 123.72173 | 3103 ft | 170 kts | 286° |
| 2026-04-25 03:35 | 11.20331 | 123.70965 | 3437 ft | 175 kts | 286° |
| 2026-04-25 03:35 | 11.20594 | 123.69779 | 3900 ft | 173 kts | 286° |
| 2026-04-25 03:36 | 11.20861 | 123.68574 | 4330 ft | 173 kts | 286° |
| 2026-04-25 03:36 | 11.21123 | 123.67394 | 4723 ft | 174 kts | 286° |
| 2026-04-25 03:36 | 11.21393 | 123.66177 | 5126 ft | 175 kts | 286° |
| 2026-04-25 03:36 | 11.21658 | 123.64985 | 5573 ft | 173 kts | 286° |
| 2026-04-25 03:37 | 11.21923 | 123.63785 | 5961 ft | 175 kts | 286° |
| 2026-04-25 03:37 | 11.22188 | 123.62586 | 6356 ft | 176 kts | 286° |
| 2026-04-25 03:37 | 11.22462 | 123.61356 | 6771 ft | 176 kts | 286° |
| 2026-04-25 03:37 | 11.22726 | 123.60155 | 7213 ft | 174 kts | 285° |
| 2026-04-25 03:38 | 11.22990 | 123.58957 | 7591 ft | 176 kts | 285° |
| 2026-04-25 03:38 | 11.23261 | 123.57746 | 8010 ft | 175 kts | 285° |
| 2026-04-25 03:38 | 11.23526 | 123.56542 | 8385 ft | 177 kts | 285° |
| 2026-04-25 03:38 | 11.23798 | 123.55318 | 8783 ft | 177 kts | 285° |
| 2026-04-25 03:39 | 11.24069 | 123.54091 | 9165 ft | 178 kts | 285° |
| 2026-04-25 03:39 | 11.24343 | 123.52869 | 9577 ft | 177 kts | 284° |
| 2026-04-25 03:39 | 11.24609 | 123.51650 | 9946 ft | 179 kts | 284° |
| 2026-04-25 03:39 | 11.24883 | 123.50420 | 10338 ft | 179 kts | 284° |
| 2026-04-25 03:40 | 11.25064 | 123.49590 | 10581 ft | 180 kts | 284° |
| 2026-04-25 03:40 | 11.25442 | 123.47886 | 10867 ft | 193 kts | 283° |
| 2026-04-25 03:40 | 11.25744 | 123.46516 | 11049 ft | 203 kts | 283° |
| 2026-04-25 03:40 | 11.26056 | 123.45101 | 11367 ft | 205 kts | 283° |
| 2026-04-25 03:41 | 11.26266 | 123.44149 | 11601 ft | 206 kts | 283° |
| 2026-04-25 03:41 | 11.26997 | 123.40829 | 12406 ft | 208 kts | 283° |
| 2026-04-25 03:41 | 11.27319 | 123.39377 | 12745 ft | 209 kts | 283° |
| 2026-04-25 03:42 | 11.27640 | 123.37923 | 13083 ft | 211 kts | 283° |
| 2026-04-25 03:42 | 11.27852 | 123.36963 | 13304 ft | 212 kts | 283° |
| 2026-04-25 03:42 | 11.28285 | 123.34998 | 13755 ft | 213 kts | 283° |
| 2026-04-25 03:42 | 11.28607 | 123.33537 | 14089 ft | 214 kts | 282° |
| 2026-04-25 03:43 | 11.28935 | 123.32050 | 14427 ft | 216 kts | 282° |
| 2026-04-25 03:43 | 11.29267 | 123.30546 | 14765 ft | 217 kts | 282° |
| 2026-04-25 03:43 | 11.29595 | 123.29055 | 15097 ft | 219 kts | 282° |
| 2026-04-25 03:43 | 11.29928 | 123.27545 | 15433 ft | 220 kts | 282° |
| 2026-04-25 03:44 | 11.30265 | 123.26010 | 15764 ft | 221 kts | 282° |
| 2026-04-25 03:44 | 11.30607 | 123.24460 | 15941 ft | 230 kts | 282° |
| 2026-04-25 03:44 | 11.30961 | 123.22845 | 15974 ft | 243 kts | 282° |
| 2026-04-25 03:44 | 11.31342 | 123.21111 | 15978 ft | 255 kts | 282° |
| 2026-04-25 03:45 | 11.31736 | 123.19320 | 15977 ft | 266 kts | 282° |
| 2026-04-25 03:45 | 11.32146 | 123.17455 | 15974 ft | 273 kts | 282° |
| 2026-04-25 03:45 | 11.32569 | 123.15529 | 15970 ft | 277 kts | 282° |
| 2026-04-25 03:45 | 11.32990 | 123.13608 | 15968 ft | 279 kts | 282° |
| 2026-04-25 03:46 | 11.33416 | 123.11668 | 15967 ft | 280 kts | 282° |
| 2026-04-25 03:46 | 11.33839 | 123.09742 | 15966 ft | 281 kts | 282° |
| 2026-04-25 03:46 | 11.34264 | 123.07810 | 15965 ft | 280 kts | 282° |
| 2026-04-25 03:46 | 11.34693 | 123.05862 | 15965 ft | 279 kts | 282° |
| 2026-04-25 03:47 | 11.35111 | 123.03954 | 15965 ft | 278 kts | 282° |
| 2026-04-25 03:47 | 11.35531 | 123.02039 | 15965 ft | 278 kts | 282° |
| 2026-04-25 03:47 | 11.35951 | 123.00119 | 15966 ft | 278 kts | 282° |
| 2026-04-25 03:47 | 11.36526 | 122.98223 | 15920 ft | 281 kts | 300° |
| 2026-04-25 03:48 | 11.37811 | 122.96748 | 15966 ft | 280 kts | 312° |
| 2026-04-25 03:48 | 11.39192 | 122.95356 | 15965 ft | 281 kts | 314° |
| 2026-04-25 03:48 | 11.40602 | 122.93971 | 15965 ft | 281 kts | 314° |
| 2026-04-25 03:48 | 11.42011 | 122.92600 | 15965 ft | 282 kts | 314° |
| 2026-04-25 03:49 | 11.43426 | 122.91229 | 15965 ft | 282 kts | 315° |
| 2026-04-25 03:49 | 11.44837 | 122.89864 | 15965 ft | 281 kts | 315° |
| 2026-04-25 03:49 | 11.46268 | 122.88481 | 15965 ft | 281 kts | 314° |
| 2026-04-25 03:49 | 11.47689 | 122.87108 | 15965 ft | 281 kts | 315° |
| 2026-04-25 03:50 | 11.49107 | 122.85738 | 15965 ft | 281 kts | 315° |
| 2026-04-25 03:50 | 11.50517 | 122.84377 | 15965 ft | 281 kts | 315° |
| 2026-04-25 03:50 | 11.51943 | 122.82999 | 15965 ft | 281 kts | 315° |
| 2026-04-25 03:50 | 11.53360 | 122.81629 | 15965 ft | 281 kts | 315° |
| 2026-04-25 03:51 | 11.54769 | 122.80267 | 15965 ft | 281 kts | 315° |
| 2026-04-25 03:51 | 11.56187 | 122.78896 | 15965 ft | 281 kts | 315° |
| 2026-04-25 03:51 | 11.57610 | 122.77521 | 15965 ft | 281 kts | 315° |
| 2026-04-25 03:51 | 11.59015 | 122.76171 | 15963 ft | 281 kts | 316° |
| 2026-04-25 03:52 | 11.60779 | 122.75310 | 15999 ft | 283 kts | 341° |
| 2026-04-25 03:52 | 11.62697 | 122.74744 | 15974 ft | 285 kts | 342° |
| 2026-04-25 03:52 | 11.64602 | 122.74216 | 15967 ft | 285 kts | 343° |
| 2026-04-25 03:52 | 11.66506 | 122.73701 | 15965 ft | 285 kts | 343° |
| 2026-04-25 03:53 | 11.68417 | 122.73188 | 15965 ft | 285 kts | 343° |
| 2026-04-25 03:53 | 11.70358 | 122.72670 | 15965 ft | 285 kts | 343° |
| 2026-04-25 03:53 | 11.72255 | 122.72163 | 15965 ft | 286 kts | 343° |
| 2026-04-25 03:53 | 11.74188 | 122.71648 | 15965 ft | 286 kts | 343° |
| 2026-04-25 03:54 | 11.76104 | 122.71137 | 15965 ft | 286 kts | 343° |
| 2026-04-25 03:54 | 11.78023 | 122.70625 | 15965 ft | 286 kts | 343° |
| 2026-04-25 03:54 | 11.79952 | 122.70111 | 15965 ft | 286 kts | 343° |
| 2026-04-25 03:54 | 11.81871 | 122.69600 | 15965 ft | 286 kts | 343° |
| 2026-04-25 03:55 | 11.83770 | 122.69094 | 15965 ft | 286 kts | 343° |
| 2026-04-25 03:55 | 11.85706 | 122.68578 | 15965 ft | 286 kts | 343° |
| 2026-04-25 03:55 | 11.87613 | 122.68069 | 15965 ft | 286 kts | 343° |
| 2026-04-25 03:55 | 11.89540 | 122.67554 | 15965 ft | 286 kts | 343° |
| 2026-04-25 03:56 | 11.91464 | 122.67041 | 15965 ft | 286 kts | 343° |
| 2026-04-25 03:56 | 11.93378 | 122.66531 | 15965 ft | 286 kts | 343° |
| 2026-04-25 03:56 | 11.95301 | 122.66018 | 15965 ft | 286 kts | 343° |
| 2026-04-25 03:56 | 11.97221 | 122.65505 | 15965 ft | 286 kts | 343° |
| 2026-04-25 03:57 | 11.99142 | 122.64992 | 15965 ft | 286 kts | 343° |
| 2026-04-25 03:57 | 12.01058 | 122.64481 | 15965 ft | 286 kts | 343° |
| 2026-04-25 03:57 | 12.02967 | 122.63971 | 15965 ft | 286 kts | 343° |
| 2026-04-25 03:57 | 12.04897 | 122.63456 | 15965 ft | 286 kts | 343° |
| 2026-04-25 03:58 | 12.06803 | 122.62946 | 15965 ft | 286 kts | 343° |
| 2026-04-25 03:58 | 12.08743 | 122.62427 | 15965 ft | 286 kts | 343° |
| 2026-04-25 03:58 | 12.10667 | 122.61913 | 15965 ft | 286 kts | 343° |
| 2026-04-25 03:58 | 12.12574 | 122.61404 | 15964 ft | 286 kts | 343° |
| 2026-04-25 03:59 | 12.14500 | 122.60889 | 15964 ft | 286 kts | 343° |
| 2026-04-25 03:59 | 12.16418 | 122.60376 | 15964 ft | 286 kts | 343° |
| 2026-04-25 03:59 | 12.18332 | 122.59865 | 15964 ft | 286 kts | 343° |
| 2026-04-25 03:59 | 12.20262 | 122.59348 | 15964 ft | 286 kts | 343° |
| 2026-04-25 04:00 | 12.22157 | 122.58842 | 15964 ft | 286 kts | 343° |
| 2026-04-25 04:00 | 12.24083 | 122.58327 | 15964 ft | 286 kts | 343° |
| 2026-04-25 04:00 | 12.25995 | 122.57815 | 15964 ft | 286 kts | 343° |
| 2026-04-25 04:00 | 12.27931 | 122.57297 | 15964 ft | 286 kts | 343° |
| 2026-04-25 04:01 | 12.29852 | 122.56783 | 15964 ft | 286 kts | 343° |
| 2026-04-25 04:01 | 12.31770 | 122.56270 | 15964 ft | 286 kts | 343° |
| 2026-04-25 04:01 | 12.33687 | 122.55756 | 15964 ft | 286 kts | 343° |
| 2026-04-25 04:01 | 12.35593 | 122.55246 | 15964 ft | 286 kts | 343° |
| 2026-04-25 04:02 | 12.37411 | 122.54486 | 15957 ft | 282 kts | 324° |
| 2026-04-25 04:02 | 12.39052 | 122.53379 | 15968 ft | 282 kts | 324° |
| 2026-04-25 04:02 | 12.40663 | 122.52261 | 15966 ft | 282 kts | 324° |
| 2026-04-25 04:02 | 12.42278 | 122.51129 | 15965 ft | 282 kts | 323° |
| 2026-04-25 04:03 | 12.43890 | 122.49992 | 15965 ft | 282 kts | 323° |
| 2026-04-25 04:03 | 12.45509 | 122.48850 | 15964 ft | 282 kts | 323° |
| 2026-04-25 04:03 | 12.47115 | 122.47714 | 15964 ft | 282 kts | 323° |
| 2026-04-25 04:03 | 12.48734 | 122.46571 | 15964 ft | 282 kts | 323° |
| 2026-04-25 04:04 | 12.50334 | 122.45439 | 15964 ft | 282 kts | 323° |
| 2026-04-25 04:04 | 12.51946 | 122.44299 | 15964 ft | 282 kts | 323° |
| 2026-04-25 04:04 | 12.53553 | 122.43162 | 15964 ft | 282 kts | 323° |
| 2026-04-25 04:04 | 12.55164 | 122.42022 | 15964 ft | 282 kts | 323° |
| 2026-04-25 04:05 | 12.56778 | 122.40879 | 15964 ft | 282 kts | 323° |
| 2026-04-25 04:05 | 12.58403 | 122.39728 | 15964 ft | 282 kts | 323° |
| 2026-04-25 04:05 | 12.60006 | 122.38593 | 15964 ft | 282 kts | 323° |
| 2026-04-25 04:05 | 12.61625 | 122.37447 | 15964 ft | 282 kts | 323° |
| 2026-04-25 04:06 | 12.63235 | 122.36307 | 15964 ft | 282 kts | 323° |
| 2026-04-25 04:06 | 12.64831 | 122.35175 | 15964 ft | 282 kts | 323° |
| 2026-04-25 04:06 | 12.66450 | 122.34029 | 15966 ft | 282 kts | 323° |
| 2026-04-25 04:06 | 12.68054 | 122.32892 | 15967 ft | 282 kts | 323° |
| 2026-04-25 04:07 | 12.69675 | 122.31743 | 15967 ft | 282 kts | 323° |
| 2026-04-25 04:07 | 12.71294 | 122.30595 | 15967 ft | 283 kts | 323° |
| 2026-04-25 04:07 | 12.72909 | 122.29450 | 15967 ft | 283 kts | 323° |
| 2026-04-25 04:07 | 12.74524 | 122.28305 | 15967 ft | 283 kts | 323° |
| 2026-04-25 04:08 | 12.76129 | 122.27167 | 15967 ft | 283 kts | 323° |
| 2026-04-25 04:08 | 12.77733 | 122.26029 | 15967 ft | 283 kts | 323° |
| 2026-04-25 04:08 | 12.79364 | 122.24872 | 15967 ft | 283 kts | 323° |
| 2026-04-25 04:08 | 12.80966 | 122.23736 | 15967 ft | 283 kts | 323° |
| 2026-04-25 04:09 | 12.82586 | 122.22587 | 15967 ft | 283 kts | 323° |
| 2026-04-25 04:09 | 12.84218 | 122.21429 | 15966 ft | 283 kts | 323° |
| 2026-04-25 04:09 | 12.85811 | 122.20299 | 15967 ft | 283 kts | 323° |
| 2026-04-25 04:09 | 12.87438 | 122.19143 | 15966 ft | 283 kts | 323° |
| 2026-04-25 04:10 | 12.89051 | 122.17998 | 15966 ft | 283 kts | 323° |
| 2026-04-25 04:10 | 12.90671 | 122.16848 | 15966 ft | 283 kts | 323° |
| 2026-04-25 04:10 | 12.92275 | 122.15708 | 15966 ft | 283 kts | 323° |
| 2026-04-25 04:10 | 12.93883 | 122.14565 | 15966 ft | 283 kts | 323° |
| 2026-04-25 04:11 | 12.97120 | 122.12265 | 15967 ft | 283 kts | 323° |
| 2026-04-25 04:11 | 12.98729 | 122.11122 | 15967 ft | 283 kts | 323° |
| 2026-04-25 04:11 | 13.00349 | 122.09970 | 15967 ft | 282 kts | 323° |
| 2026-04-25 04:12 | 13.01954 | 122.08830 | 15967 ft | 282 kts | 323° |
| 2026-04-25 04:12 | 13.03549 | 122.07695 | 15966 ft | 282 kts | 323° |
| 2026-04-25 04:12 | 13.05166 | 122.06545 | 15966 ft | 281 kts | 323° |
| 2026-04-25 04:12 | 13.06762 | 122.05410 | 15966 ft | 281 kts | 323° |
| 2026-04-25 04:13 | 13.08375 | 122.04263 | 15966 ft | 280 kts | 322° |
| 2026-04-25 04:13 | 13.09960 | 122.03135 | 15966 ft | 280 kts | 322° |
| 2026-04-25 04:13 | 13.11572 | 122.01988 | 15966 ft | 279 kts | 322° |
| 2026-04-25 04:13 | 13.13165 | 122.00854 | 15965 ft | 279 kts | 322° |
| 2026-04-25 04:14 | 13.14754 | 121.99722 | 15963 ft | 278 kts | 322° |
| 2026-04-25 04:14 | 13.16348 | 121.98587 | 15961 ft | 278 kts | 322° |
| 2026-04-25 04:14 | 13.17934 | 121.97457 | 15959 ft | 278 kts | 322° |
| 2026-04-25 04:14 | 13.19513 | 121.96333 | 15957 ft | 278 kts | 322° |
| 2026-04-25 04:15 | 13.21104 | 121.95200 | 15954 ft | 277 kts | 322° |
| 2026-04-25 04:15 | 13.22674 | 121.94081 | 15951 ft | 277 kts | 322° |
| 2026-04-25 04:15 | 13.24268 | 121.92945 | 15947 ft | 278 kts | 322° |
| 2026-04-25 04:15 | 13.25868 | 121.91805 | 15944 ft | 278 kts | 322° |
| 2026-04-25 04:16 | 13.27450 | 121.90678 | 15941 ft | 278 kts | 322° |
| 2026-04-25 04:16 | 13.29041 | 121.89542 | 15939 ft | 278 kts | 322° |
| 2026-04-25 04:16 | 13.30616 | 121.88419 | 15938 ft | 278 kts | 322° |
| 2026-04-25 04:16 | 13.32214 | 121.87280 | 15938 ft | 278 kts | 322° |
| 2026-04-25 04:17 | 13.33806 | 121.86145 | 15938 ft | 278 kts | 322° |
| 2026-04-25 04:17 | 13.35382 | 121.85021 | 15938 ft | 278 kts | 322° |
| 2026-04-25 04:17 | 13.36975 | 121.83884 | 15938 ft | 278 kts | 322° |
| 2026-04-25 04:17 | 13.38566 | 121.82748 | 15938 ft | 278 kts | 322° |
| 2026-04-25 04:18 | 13.40142 | 121.81623 | 15938 ft | 278 kts | 322° |
| 2026-04-25 04:18 | 13.41738 | 121.80484 | 15938 ft | 278 kts | 322° |
| 2026-04-25 04:18 | 13.43317 | 121.79356 | 15938 ft | 278 kts | 322° |
| 2026-04-25 04:18 | 13.44903 | 121.78223 | 15938 ft | 278 kts | 322° |
| 2026-04-25 04:19 | 13.46491 | 121.77090 | 15938 ft | 278 kts | 322° |
| 2026-04-25 04:19 | 13.48067 | 121.75964 | 15938 ft | 278 kts | 322° |
| 2026-04-25 04:19 | 13.49648 | 121.74834 | 15938 ft | 278 kts | 322° |
| 2026-04-25 04:19 | 13.51228 | 121.73705 | 15938 ft | 278 kts | 322° |
| 2026-04-25 04:20 | 13.52821 | 121.72567 | 15938 ft | 278 kts | 322° |
| 2026-04-25 04:20 | 13.54423 | 121.71422 | 15938 ft | 278 kts | 322° |
| 2026-04-25 04:20 | 13.55993 | 121.70299 | 15937 ft | 278 kts | 322° |
| 2026-04-25 04:20 | 13.57587 | 121.69160 | 15937 ft | 278 kts | 322° |
| 2026-04-25 04:21 | 13.59176 | 121.68024 | 15937 ft | 278 kts | 322° |
| 2026-04-25 04:21 | 13.60740 | 121.66904 | 15937 ft | 278 kts | 322° |
| 2026-04-25 04:21 | 13.62332 | 121.65766 | 15937 ft | 278 kts | 322° |
| 2026-04-25 04:21 | 13.63925 | 121.64626 | 15937 ft | 278 kts | 322° |
| 2026-04-25 04:22 | 13.65499 | 121.63500 | 15937 ft | 278 kts | 322° |
| 2026-04-25 04:22 | 13.67096 | 121.62357 | 15937 ft | 278 kts | 322° |
| 2026-04-25 04:22 | 13.68671 | 121.61230 | 15937 ft | 278 kts | 322° |
| 2026-04-25 04:22 | 13.70261 | 121.60091 | 15937 ft | 278 kts | 322° |
| 2026-04-25 04:23 | 13.71827 | 121.58970 | 15937 ft | 278 kts | 322° |
| 2026-04-25 04:23 | 13.73405 | 121.57840 | 15937 ft | 278 kts | 322° |
| 2026-04-25 04:23 | 13.74997 | 121.56699 | 15937 ft | 278 kts | 322° |
| 2026-04-25 04:23 | 13.76574 | 121.55570 | 15937 ft | 278 kts | 322° |
| 2026-04-25 04:24 | 13.78165 | 121.54429 | 15937 ft | 278 kts | 322° |
| 2026-04-25 04:24 | 13.79753 | 121.53291 | 15937 ft | 278 kts | 322° |
| 2026-04-25 04:24 | 13.81326 | 121.52163 | 15937 ft | 278 kts | 322° |
| 2026-04-25 04:24 | 13.82919 | 121.51022 | 15937 ft | 278 kts | 322° |
| 2026-04-25 04:25 | 13.84506 | 121.49884 | 15937 ft | 278 kts | 322° |
| 2026-04-25 04:25 | 13.86075 | 121.48759 | 15937 ft | 278 kts | 322° |
| 2026-04-25 04:25 | 13.87655 | 121.47625 | 15936 ft | 278 kts | 322° |
| 2026-04-25 04:25 | 13.89247 | 121.46482 | 15936 ft | 278 kts | 322° |
| 2026-04-25 04:26 | 13.90831 | 121.45346 | 15936 ft | 278 kts | 322° |
| 2026-04-25 04:26 | 13.92415 | 121.44209 | 15936 ft | 278 kts | 322° |
| 2026-04-25 04:26 | 13.93992 | 121.43076 | 15936 ft | 278 kts | 322° |
| 2026-04-25 04:26 | 13.95573 | 121.41942 | 15936 ft | 278 kts | 322° |
| 2026-04-25 04:27 | 13.97146 | 121.40812 | 15936 ft | 278 kts | 322° |
| 2026-04-25 04:27 | 13.98723 | 121.39680 | 15936 ft | 278 kts | 322° |
| 2026-04-25 04:27 | 14.00316 | 121.38535 | 15936 ft | 278 kts | 322° |
| 2026-04-25 04:27 | 14.01887 | 121.37406 | 15936 ft | 278 kts | 322° |
| 2026-04-25 04:28 | 14.03465 | 121.36272 | 15936 ft | 277 kts | 322° |
| 2026-04-25 04:28 | 14.05057 | 121.35128 | 15936 ft | 277 kts | 322° |
| 2026-04-25 04:28 | 14.06638 | 121.33992 | 15939 ft | 278 kts | 322° |
| 2026-04-25 04:28 | 14.08215 | 121.32858 | 15940 ft | 278 kts | 322° |
| 2026-04-25 04:29 | 14.09807 | 121.31714 | 15940 ft | 278 kts | 322° |
| 2026-04-25 04:29 | 14.11395 | 121.30572 | 15940 ft | 278 kts | 322° |
| 2026-04-25 04:29 | 14.12960 | 121.29446 | 15940 ft | 278 kts | 322° |
| 2026-04-25 04:29 | 14.14559 | 121.28296 | 15940 ft | 278 kts | 322° |
| 2026-04-25 04:30 | 14.16148 | 121.27153 | 15940 ft | 278 kts | 322° |
| 2026-04-25 04:30 | 14.17718 | 121.26023 | 15940 ft | 278 kts | 322° |
| 2026-04-25 04:30 | 14.19318 | 121.24871 | 15940 ft | 279 kts | 322° |
| 2026-04-25 04:30 | 14.20909 | 121.23725 | 15940 ft | 279 kts | 322° |
| 2026-04-25 04:31 | 14.22494 | 121.22585 | 15940 ft | 279 kts | 322° |
| 2026-04-25 04:31 | 14.24067 | 121.21452 | 15940 ft | 279 kts | 322° |
| 2026-04-25 04:31 | 14.25651 | 121.20311 | 15940 ft | 279 kts | 322° |
| 2026-04-25 04:31 | 14.27243 | 121.19164 | 15939 ft | 279 kts | 322° |
| 2026-04-25 04:32 | 14.28839 | 121.18014 | 15939 ft | 279 kts | 322° |
| 2026-04-25 04:32 | 14.29885 | 121.17259 | 15939 ft | 279 kts | 322° |
| 2026-04-25 04:34 | 14.41654 | 121.08758 | 15941 ft | 279 kts | 325° |
| 2026-04-25 04:34 | 14.43243 | 121.07620 | 15939 ft | 278 kts | 325° |
| 2026-04-25 04:34 | 14.44811 | 121.06492 | 15938 ft | 278 kts | 324° |
| 2026-04-25 04:34 | 14.46378 | 121.05357 | 15835 ft | 274 kts | 324° |
| 2026-04-25 04:35 | 14.47952 | 121.04215 | 15544 ft | 275 kts | 324° |
| 2026-04-25 04:35 | 14.49510 | 121.03085 | 15271 ft | 276 kts | 324° |
| 2026-04-25 04:35 | 14.51103 | 121.01951 | 14989 ft | 277 kts | 326° |
| 2026-04-25 04:35 | 14.52694 | 121.00871 | 14717 ft | 278 kts | 326° |
| 2026-04-25 04:36 | 14.54305 | 120.99779 | 14435 ft | 275 kts | 325° |
| 2026-04-25 04:36 | 14.55899 | 120.98700 | 14152 ft | 272 kts | 325° |
| 2026-04-25 04:36 | 14.57464 | 120.97640 | 13872 ft | 270 kts | 325° |
| 2026-04-25 04:36 | 14.59035 | 120.96577 | 13590 ft | 268 kts | 325° |
| 2026-04-25 04:37 | 14.60464 | 120.95417 | 12995 ft | 264 kts | 310° |
| 2026-04-25 04:37 | 14.61957 | 120.94340 | 12343 ft | 261 kts | 330° |
| 2026-04-25 04:37 | 14.63489 | 120.93437 | 12091 ft | 253 kts | 329° |
| 2026-04-25 04:37 | 14.64991 | 120.92513 | 11799 ft | 250 kts | 328° |
| 2026-04-25 04:38 | 14.66476 | 120.91543 | 11518 ft | 250 kts | 325° |
| 2026-04-25 04:38 | 14.67921 | 120.90571 | 11245 ft | 250 kts | 325° |
| 2026-04-25 04:38 | 14.69316 | 120.89629 | 10980 ft | 250 kts | 325° |
| 2026-04-25 04:38 | 14.70769 | 120.88645 | 10706 ft | 250 kts | 324° |
| 2026-04-25 04:39 | 14.72222 | 120.87662 | 10430 ft | 251 kts | 324° |
| 2026-04-25 04:39 | 14.73666 | 120.86683 | 10157 ft | 251 kts | 324° |
| 2026-04-25 04:39 | 14.75127 | 120.85692 | 9882 ft | 252 kts | 324° |
| 2026-04-25 04:39 | 14.76594 | 120.84695 | 9608 ft | 252 kts | 324° |
| 2026-04-25 04:40 | 14.78059 | 120.83697 | 9338 ft | 252 kts | 326° |
| 2026-04-25 04:40 | 14.79497 | 120.82713 | 9077 ft | 247 kts | 328° |
| 2026-04-25 04:40 | 14.80930 | 120.81750 | 8820 ft | 244 kts | 327° |
| 2026-04-25 04:40 | 14.82349 | 120.80788 | 8562 ft | 241 kts | 327° |
| 2026-04-25 04:41 | 14.83726 | 120.79852 | 8309 ft | 238 kts | 327° |
| 2026-04-25 04:41 | 14.85101 | 120.78917 | 8054 ft | 236 kts | 327° |
| 2026-04-25 04:41 | 14.86474 | 120.77986 | 7797 ft | 233 kts | 327° |
| 2026-04-25 04:41 | 14.87806 | 120.77081 | 7545 ft | 231 kts | 327° |
| 2026-04-25 04:42 | 14.89153 | 120.76166 | 7289 ft | 229 kts | 327° |
| 2026-04-25 04:42 | 14.90479 | 120.75267 | 7035 ft | 227 kts | 327° |
| 2026-04-25 04:42 | 14.91791 | 120.74374 | 6783 ft | 226 kts | 327° |
| 2026-04-25 04:42 | 14.93102 | 120.73482 | 6529 ft | 225 kts | 327° |
| 2026-04-25 04:43 | 14.94367 | 120.72562 | 6258 ft | 225 kts | 315° |
| 2026-04-25 04:43 | 14.95007 | 120.71119 | 6018 ft | 220 kts | 285° |
| 2026-04-25 04:43 | 14.95311 | 120.69598 | 5764 ft | 212 kts | 282° |
| 2026-04-25 04:43 | 14.95551 | 120.68117 | 5524 ft | 205 kts | 281° |
| 2026-04-25 04:44 | 14.95772 | 120.66685 | 5299 ft | 198 kts | 281° |
| 2026-04-25 04:44 | 14.95979 | 120.65314 | 5085 ft | 191 kts | 281° |
| 2026-04-25 04:44 | 14.96477 | 120.64090 | 4877 ft | 182 kts | 301° |
| 2026-04-25 04:44 | 14.97123 | 120.62972 | 4703 ft | 180 kts | 303° |
| 2026-04-25 04:45 | 14.97800 | 120.61839 | 4605 ft | 192 kts | 303° |
| 2026-04-25 04:45 | 14.98535 | 120.60622 | 4500 ft | 204 kts | 303° |
| 2026-04-25 04:45 | 14.99289 | 120.59379 | 4377 ft | 204 kts | 303° |
| 2026-04-25 04:45 | 15.00045 | 120.58131 | 4195 ft | 202 kts | 303° |
| 2026-04-25 04:46 | 15.00777 | 120.56923 | 4002 ft | 193 kts | 304° |
| 2026-04-25 04:46 | 15.01478 | 120.55769 | 3811 ft | 185 kts | 303° |
| 2026-04-25 04:46 | 15.02148 | 120.54663 | 3620 ft | 179 kts | 304° |
| 2026-04-25 04:46 | 15.02791 | 120.53603 | 3429 ft | 173 kts | 303° |
| 2026-04-25 04:47 | 15.03423 | 120.52562 | 3240 ft | 169 kts | 303° |
| 2026-04-25 04:47 | 15.04061 | 120.51526 | 3109 ft | 170 kts | 309° |
| 2026-04-25 04:47 | 15.05072 | 120.50974 | 3020 ft | 168 kts | 357° |
| 2026-04-25 04:47 | 15.06169 | 120.51262 | 3005 ft | 161 kts | 20° |
| 2026-04-25 04:48 | 15.07186 | 120.51692 | 2981 ft | 155 kts | 21° |
| 2026-04-25 04:48 | 15.08200 | 120.52128 | 2754 ft | 164 kts | 21° |
| 2026-04-25 04:48 | 15.09280 | 120.52589 | 2507 ft | 168 kts | 22° |
| 2026-04-25 04:48 | 15.10320 | 120.53033 | 2341 ft | 153 kts | 21° |
| 2026-04-25 04:49 | 15.11265 | 120.53426 | 2142 ft | 136 kts | 21° |
| 2026-04-25 04:49 | 15.12126 | 120.53713 | 1836 ft | 129 kts | 22° |
| 2026-04-25 04:49 | 15.12908 | 120.54033 | 1661 ft | 117 kts | 19° |
| 2026-04-25 04:49 | 15.13680 | 120.54324 | 1477 ft | 121 kts | 19° |
| 2026-04-25 04:50 | 15.14487 | 120.54636 | 1281 ft | 128 kts | 22° |
| 2026-04-25 04:50 | 15.15309 | 120.54963 | 1042 ft | 125 kts | 19° |
| 2026-04-25 04:50 | 15.16085 | 120.55256 | 845 ft | 114 kts | 19° |
| 2026-04-25 04:50 | 15.16827 | 120.55548 | 694 ft | 114 kts | 19° |
| 2026-04-25 04:51 | 15.17579 | 120.55846 | 524 ft | 115 kts | 18° |
| 2026-04-25 04:51 | 15.18258 | 120.56111 | 488 ft | 93 kts | 20° |
| 2026-04-25 04:51 | 15.18726 | 120.56295 | 487 ft | 55 kts | 22° |
| 2026-04-25 04:51 | 15.18988 | 120.56400 | 487 ft | 28 kts | 21° |
| 2026-04-25 04:52 | 15.19113 | 120.56408 | 487 ft | 15 kts | 305° |
| 2026-04-25 04:52 | 15.19151 | 120.56315 | 487 ft | 13 kts | 292° |
| 2026-04-25 04:52 | 15.19182 | 120.56229 | 487 ft | 12 kts | 290° |
| 2026-04-25 04:52 | 15.19246 | 120.56202 | 487 ft | 10 kts | 18° |
| 2026-04-25 04:53 | 15.19315 | 120.56229 | 487 ft | 10 kts | 21° |
| 2026-04-25 04:53 | 15.19382 | 120.56255 | 487 ft | 10 kts | 15° |
| 2026-04-25 04:53 | 15.19440 | 120.56192 | 487 ft | 18 kts | 291° |
| 2026-04-25 04:53 | 15.19469 | 120.56084 | 487 ft | 16 kts | 246° |
| 2026-04-25 04:54 | 15.19343 | 120.56021 | 487 ft | 23 kts | 200° |
| 2026-04-25 04:54 | 15.19296 | 120.55970 | 487 ft | 11 kts | 304° |
| 2026-04-25 04:54 | 15.19315 | 120.55926 | 487 ft | 0 kts | 290° |